Main page
METAR-TAF:

METAR-TAF

Airports :

Nairobi, Kenya

Jomo Kenyatta International Airport

latitude: 01-19S, longitude: 036-55E, elevation: 1624 m

Current weather observation

The report was made 29 minutes ago, at 13:30 UTC
Wind 11 kt from the East/Northeast
Temperature 31°C
Humidity 19%
Pressure 1017 hPa
Visibility 10 km or more
Scattered clouds at a height of 3500 ft

METAR: HKJK 241330Z 07011KT 9999 SCT035 31/05 Q1017 NOSIG

Time: 16:59 (13:59 UTC)

Forecast

The report was made 2 hours and 59 minutes ago, at 11:00 UTC
Forecast valid from 24 at 12 UTC to 25 at 18 UTC
Wind 10 kt from the East/Northeast
Visibility 10 km or more
Scattered clouds at a height of 2900 ft
Temporary
from 25 at 03 UTC to 25 at 06 UTC
Few clouds at a height of 2100 ft, Cumulonimbus.
Broken clouds at a height of 2200 ft

TAF: HKJK 241100Z 2412/2518 06010KT 9999 SCT029 TEMPO 2503/2506 FEW021CB BKN022

Weather observations and forecasts of more than 4000 airports (METAR and TAF reports).

The available stations are represented by yellow and red dots on the map.

Hover mouse over dot to see the name of the station.

Then click to see weather observations and forecasts.

To change the map : click on the green buttons with a black cross to zoom in, on the green button with a dash to zoom out, or on the green arrows for adjacent maps.


METAR-TAF: